Time;durP1;ratioP1;P1;durP2;ratioP2;P2;SDS_P1;SDS_P2;PMS_P1;PMS_P2;Temp;Humidity;BMP_temperature;BMP_pressure;BME280_temperature;BME280_humidity;BME280_pressure;Samples;Min_cycle;Max_cycle;Signal;HPM_P1;HPM_P2
2023/10/21 00:00:57;;;;;;;0.40;0.40;;;;;;;14.20;72.46;94199.59;5073079;28;20214;-78
2023/10/21 00:03:24;;;;;;;0.20;0.20;;;;;;;14.37;71.49;94186.66;5073981;28;20215;-82
2023/10/21 00:05:51;;;;;;;0.38;0.28;;;;;;;14.33;71.93;94194.00;5073492;28;20681;-81
2023/10/21 00:08:19;;;;;;;0.73;0.50;;;;;;;14.19;72.69;94187.13;5074060;28;20227;-83
2023/10/21 00:10:45;;;;;;;4.55;1.10;;;;;;;14.08;73.10;94188.84;5073340;28;20256;-79
2023/10/21 00:13:12;;;;;;;0.40;0.40;;;;;;;13.99;72.97;94193.72;5073660;28;20207;-81
2023/10/21 00:15:42;;;;;;;0.20;0.20;;;;;;;13.93;74.09;94194.41;5073985;28;20574;-81
2023/10/21 00:18:08;;;;;;;0.40;0.40;;;;;;;13.78;74.40;94205.00;5074292;28;20202;-80
2023/10/21 00:20:35;;;;;;;2.75;0.80;;;;;;;13.74;74.40;94203.34;5077166;28;20609;-81
2023/10/21 00:23:02;;;;;;;0.10;0.10;;;;;;;13.69;75.38;94200.88;5074619;28;20207;-81
2023/10/21 00:25:29;;;;;;;0.28;0.25;;;;;;;13.61;75.29;94188.28;5075093;28;20262;-81
2023/10/21 00:27:56;;;;;;;0.40;0.40;;;;;;;13.57;76.38;94209.97;5075302;28;20289;-83
2023/10/21 00:30:23;;;;;;;0.20;0.20;;;;;;;13.57;76.39;94214.63;5074496;28;20200;-81
2023/10/21 00:32:51;;;;;;;2.10;0.95;;;;;;;13.41;76.92;94210.03;5076198;28;20203;-82
2023/10/21 00:35:18;;;;;;;0.20;0.20;;;;;;;13.44;76.89;94209.31;5075133;28;20215;-75
2023/10/21 00:37:45;;;;;;;0.20;0.20;;;;;;;13.39;76.88;94225.91;5072567;28;20214;-76
2023/10/21 00:40:12;;;;;;;0.20;0.20;;;;;;;13.32;77.73;94214.88;5072438;28;20211;-76
2023/10/21 00:42:39;;;;;;;0.10;0.10;;;;;;;13.33;77.87;94208.31;5072444;28;20206;-75
2023/10/21 00:45:08;;;;;;;0.28;0.28;;;;;;;13.36;78.16;94232.09;5071567;28;20239;-75
2023/10/21 00:47:35;;;;;;;0.73;0.73;;;;;;;13.42;78.10;94203.44;5072208;28;20202;-75
2023/10/21 00:50:04;;;;;;;0.30;0.30;;;;;;;13.61;77.41;94231.84;5079206;28;20255;-74
2023/10/21 00:52:31;;;;;;;0.45;0.35;;;;;;;13.50;77.79;94240.56;5092263;28;20255;-74
2023/10/21 00:55:01;;;;;;;0.30;0.30;;;;;;;13.40;78.24;94224.78;5084120;28;20203;-75
2023/10/21 00:57:29;;;;;;;1.13;0.63;;;;;;;13.25;78.66;94225.63;5072155;28;20704;-74
2023/10/21 00:59:56;;;;;;;0.30;0.30;;;;;;;13.33;78.68;94237.44;5071798;28;20615;-75
2023/10/21 01:02:23;;;;;;;0.28;0.28;;;;;;;13.39;78.57;94236.78;5071893;28;20203;-76
2023/10/21 01:04:50;;;;;;;0.20;0.20;;;;;;;13.43;78.63;94248.56;5071411;28;20222;-77
2023/10/21 01:07:18;;;;;;;0.70;0.70;;;;;;;13.42;78.62;94252.41;5074449;28;20237;-76
2023/10/21 01:09:45;;;;;;;0.88;0.88;;;;;;;13.40;79.06;94224.78;5082773;28;20230;-76
2023/10/21 01:12:12;;;;;;;0.32;0.32;;;;;;;13.50;78.86;94240.56;5071522;28;20211;-76
2023/10/21 01:14:38;;;;;;;0.35;0.35;;;;;;;13.50;78.82;94242.50;5071417;28;20214;-75
2023/10/21 01:17:05;;;;;;;0.88;0.80;;;;;;;13.49;78.24;94244.44;5071358;28;20213;-75
2023/10/21 01:19:32;;;;;;;0.20;0.20;;;;;;;13.42;78.05;94246.19;5071543;28;20233;-74
2023/10/21 01:21:59;;;;;;;0.17;0.17;;;;;;;13.51;78.56;94231.25;5070463;28;20256;-74
2023/10/21 01:24:28;;;;;;;0.30;0.30;;;;;;;13.50;77.93;94243.28;5071056;28;20244;-74
2023/10/21 01:26:55;;;;;;;0.20;0.20;;;;;;;13.43;78.34;94245.03;5071218;28;20217;-75
2023/10/21 01:29:24;;;;;;;0.40;0.40;;;;;;;13.42;79.02;94255.13;5070464;28;20237;-75
2023/10/21 01:31:51;;;;;;;0.20;0.20;;;;;;;13.48;78.99;94218.34;5070890;28;20305;-76
2023/10/21 01:34:18;;;;;;;1.10;0.80;;;;;;;13.38;79.08;94223.56;5071156;28;20637;-75
2023/10/21 01:36:45;;;;;;;0.68;0.68;;;;;;;13.27;80.07;94234.19;5070754;28;20218;-75
2023/10/21 01:39:14;;;;;;;0.57;0.57;;;;;;;13.15;80.52;94234.31;5071280;28;20215;-75
2023/10/21 01:41:43;;;;;;;0.40;0.40;;;;;;;13.24;80.68;94239.56;5085028;28;20207;-76
2023/10/21 01:44:10;;;;;;;0.20;0.20;;;;;;;13.06;81.33;94228.22;5070871;28;20217;-75
2023/10/21 01:46:37;;;;;;;3.83;0.35;;;;;;;13.01;80.49;94244.81;5070805;28;20294;-75
2023/10/21 01:49:04;;;;;;;0.20;0.20;;;;;;;13.22;80.42;94215.44;5070710;28;20218;-75
2023/10/21 01:51:31;;;;;;;0.63;0.52;;;;;;;13.16;80.67;94216.84;5090800;28;20237;-75
2023/10/21 01:53:58;;;;;;;0.20;0.20;;;;;;;13.04;81.16;94235.94;5077847;28;20217;-75
2023/10/21 01:56:25;;;;;;;0.10;0.10;;;;;;;13.29;79.95;94220.25;5070830;28;20263;-79
2023/10/21 01:58:53;;;;;;;1.45;0.73;;;;;;;13.76;78.17;94228.28;5070726;28;20607;-82
2023/10/21 02:01:20;;;;;;;0.35;0.35;;;;;;;13.47;79.13;94254.88;5071001;28;20651;-82
2023/10/21 02:03:47;;;;;;;0.20;0.20;;;;;;;13.25;80.12;94231.06;5070508;28;20215;-80
2023/10/21 02:06:14;;;;;;;0.17;0.13;;;;;;;13.24;80.08;94226.75;5070486;28;20257;-81
2023/10/21 02:08:41;;;;;;;1.27;0.68;;;;;;;13.29;79.70;94244.72;5070592;28;20235;-81
2023/10/21 02:11:08;;;;;;;1.63;1.33;;;;;;;13.27;80.04;94268.75;5071858;28;20210;-82
2023/10/21 02:13:35;;;;;;;2.78;1.45;;;;;;;13.31;79.92;94240.50;5070610;28;20555;-80
2023/10/21 02:16:09;;;;;;;2.63;1.20;;;;;;;13.43;79.45;94228.72;5070331;28;20215;-79
2023/10/21 02:18:36;;;;;;;2.25;1.60;;;;;;;13.34;79.75;94253.41;5070375;28;20274;-79
2023/10/21 02:21:06;;;;;;;0.20;0.20;;;;;;;13.41;79.51;94239.94;5070207;28;20306;-79
2023/10/21 02:23:33;;;;;;;0.20;0.20;;;;;;;13.37;79.82;94241.03;5070583;28;20254;-78
2023/10/21 02:25:59;;;;;;;2.38;1.02;;;;;;;13.34;80.05;94239.81;5070053;28;20210;-78
2023/10/21 02:28:26;;;;;;;0.28;0.28;;;;;;;13.33;80.23;94237.44;5070369;28;20317;-78
2023/10/21 02:30:53;;;;;;;0.20;0.20;;;;;;;13.01;82.01;94225.78;5070095;28;20214;-78
2023/10/21 02:33:21;;;;;;;0.63;0.32;;;;;;;13.08;81.46;94258.59;5070271;28;20206;-78
2023/10/21 02:35:52;;;;;;;0.30;0.30;;;;;;;13.07;80.84;94257.81;5070275;28;20549;-78
2023/10/21 02:38:18;;;;;;;0.20;0.20;;;;;;;13.13;80.78;94245.50;5070092;28;20210;-76
2023/10/21 02:40:46;;;;;;;0.20;0.20;;;;;;;13.12;80.39;94254.00;5070300;28;20257;-76
2023/10/21 02:43:13;;;;;;;0.20;0.20;;;;;;;13.18;80.55;94262.72;5070365;28;20214;-76
2023/10/21 02:45:40;;;;;;;0.13;0.13;;;;;;;13.23;80.42;94255.09;5069846;28;20246;-76
2023/10/21 02:48:07;;;;;;;0.52;0.50;;;;;;;13.25;79.97;94258.25;5069532;28;20195;-76
2023/10/21 02:50:36;;;;;;;0.50;0.50;;;;;;;13.31;79.61;94256.81;5082085;28;20304;-76
2023/10/21 02:53:03;;;;;;;0.38;0.38;;;;;;;13.26;79.77;94267.97;5090438;28;20555;-76
2023/10/21 02:55:30;;;;;;;0.80;0.80;;;;;;;13.21;80.33;94268.25;5102909;28;20288;-76
2023/10/21 02:57:57;;;;;;;0.25;0.25;;;;;;;13.19;80.69;94259.66;5070854;28;20211;-76
2023/10/21 03:00:24;;;;;;;1.83;1.10;;;;;;;13.39;78.67;94247.69;5069961;28;20210;-76
2023/10/21 03:02:51;;;;;;;6.43;1.70;;;;;;;13.11;80.55;94255.16;5078505;28;20198;-76
2023/10/21 03:05:18;;;;;;;0.85;0.85;;;;;;;13.19;79.42;94286.06;5091180;28;20723;-76
2023/10/21 03:07:46;;;;;;;0.30;0.30;;;;;;;13.19;80.29;94297.72;5091974;28;20581;-78
2023/10/21 03:10:13;;;;;;;0.20;0.20;;;;;;;13.33;79.31;94286.41;5092968;28;20624;-77
2023/10/21 03:12:40;;;;;;;0.40;0.40;;;;;;;13.37;79.06;94290.78;5078724;28;20206;-77
2023/10/21 03:15:08;;;;;;;0.50;0.50;;;;;;;13.16;79.75;94282.13;5079153;28;20209;-77
2023/10/21 03:17:35;;;;;;;0.98;0.65;;;;;;;13.14;79.72;94262.59;5087681;28;20608;-77
2023/10/21 03:20:02;;;;;;;0.30;0.30;;;;;;;13.20;79.84;94265.88;5091996;28;20703;-77
2023/10/21 03:22:29;;;;;;;0.80;0.75;;;;;;;13.24;79.29;94294.75;5079095;28;20218;-77
2023/10/21 03:24:57;;;;;;;0.20;0.20;;;;;;;13.19;79.95;94292.28;5085846;28;20225;-78
2023/10/21 03:27:25;;;;;;;0.75;0.47;;;;;;;13.06;80.48;94277.19;5084745;28;20211;-78
2023/10/21 03:29:52;;;;;;;0.70;0.30;;;;;;;13.00;80.24;94295.69;5090230;28;20234;-78
2023/10/21 03:32:18;;;;;;;0.20;0.20;;;;;;;12.88;80.80;94292.25;5073810;28;20207;-78
2023/10/21 03:34:46;;;;;;;0.65;0.65;;;;;;;12.78;81.38;94285.41;5083123;28;20198;-76
2023/10/21 03:37:12;;;;;;;0.40;0.40;;;;;;;12.76;82.11;94285.75;5089563;28;20205;-75
2023/10/21 03:39:41;;;;;;;0.17;0.17;;;;;;;12.75;81.89;94284.19;5089675;28;20194;-75
2023/10/21 03:42:09;;;;;;;0.20;0.20;;;;;;;12.70;82.47;94295.34;5089454;28;20206;-76
2023/10/21 03:44:36;;;;;;;1.10;1.00;;;;;;;12.67;82.76;94290.59;5089224;28;20202;-76
2023/10/21 03:47:03;;;;;;;0.40;0.40;;;;;;;12.64;82.42;94272.25;5089227;28;20202;-76
2023/10/21 03:49:30;;;;;;;0.25;0.25;;;;;;;12.61;82.75;94280.31;5075617;28;20663;-75
2023/10/21 03:51:57;;;;;;;3.70;1.98;;;;;;;12.59;83.08;94274.41;5089683;28;20626;-76
2023/10/21 03:54:23;;;;;;;2.67;1.35;;;;;;;12.52;82.93;94263.38;5089500;28;20218;-75
2023/10/21 03:56:51;;;;;;;1.42;1.23;;;;;;;12.43;83.80;94271.69;5092949;28;20283;-75
2023/10/21 03:59:19;;;;;;;3.80;1.50;;;;;;;12.16;84.50;94267.09;5093665;28;20230;-76
2023/10/21 04:01:46;;;;;;;1.73;1.40;;;;;;;12.13;85.05;94278.63;5086702;28;20376;-75
2023/10/21 04:04:13;;;;;;;0.13;0.13;;;;;;;11.93;86.38;94274.94;5085539;28;20231;-78
2023/10/21 04:06:40;;;;;;;0.30;0.30;;;;;;;11.93;86.05;94283.88;5083564;28;20592;-79
2023/10/21 04:09:08;;;;;;;1.45;0.90;;;;;;;11.79;87.50;94278.03;5081115;28;20222;-76
2023/10/21 04:11:37;;;;;;;0.68;0.68;;;;;;;11.84;87.09;94304.97;5084601;28;20211;-75
2023/10/21 04:14:06;;;;;;;0.20;0.20;;;;;;;11.86;87.27;94285.63;5080559;28;20234;-74
2023/10/21 04:16:34;;;;;;;1.55;0.63;;;;;;;12.05;86.38;94272.97;5080821;28;20235;-75
2023/10/21 04:19:01;;;;;;;0.20;0.20;;;;;;;12.08;86.12;94277.72;5078551;28;20199;-75
2023/10/21 04:21:28;;;;;;;0.20;0.20;;;;;;;12.27;85.86;94268.94;5083864;28;20203;-74
2023/10/21 04:23:54;;;;;;;0.20;0.20;;;;;;;12.14;86.51;94285.63;5082750;28;20207;-76
2023/10/21 04:26:21;;;;;;;0.30;0.30;;;;;;;12.01;87.55;94291.13;5082270;28;20203;-75
2023/10/21 04:28:49;;;;;;;0.20;0.20;;;;;;;12.07;86.88;94308.72;5080805;28;20673;-75
2023/10/21 04:31:15;;;;;;;0.60;0.60;;;;;;;12.33;85.26;94293.91;5082961;28;20221;-75
2023/10/21 04:33:44;;;;;;;0.20;0.20;;;;;;;12.49;84.26;94286.59;5077167;28;20214;-76
2023/10/21 04:36:11;;;;;;;0.47;0.47;;;;;;;12.50;84.34;94271.88;5072425;28;20210;-76
2023/10/21 04:38:38;;;;;;;0.20;0.20;;;;;;;12.33;85.25;94293.91;5072681;28;20215;-77
2023/10/21 04:41:08;;;;;;;0.90;0.82;;;;;;;12.25;85.43;94309.25;5072541;28;20206;-73
2023/10/21 04:43:35;;;;;;;0.30;0.30;;;;;;;12.34;85.16;94284.63;5072580;28;20219;-78
2023/10/21 04:46:02;;;;;;;0.20;0.20;;;;;;;12.27;85.40;94289.88;5072023;28;20633;-76
2023/10/21 04:48:29;;;;;;;0.40;0.40;;;;;;;12.27;85.57;94303.47;5072353;28;20306;-76
2023/10/21 04:50:57;;;;;;;0.22;0.22;;;;;;;12.10;86.37;94321.63;5072254;28;20230;-78
2023/10/21 04:53:26;;;;;;;0.85;0.85;;;;;;;12.24;86.37;94306.88;5072366;28;20214;-78
2023/10/21 04:55:53;;;;;;;0.63;0.63;;;;;;;12.31;86.23;94320.63;5072455;28;20214;-77
2023/10/21 04:58:20;;;;;;;0.40;0.40;;;;;;;12.43;85.35;94315.97;5081247;28;20200;-77
2023/10/21 05:00:47;;;;;;;0.20;0.20;;;;;;;12.39;85.39;94333.28;5088294;28;20209;-77
2023/10/21 05:03:17;;;;;;;0.20;0.20;;;;;;;12.36;86.34;94332.03;5084415;28;20203;-79
2023/10/21 05:05:43;;;;;;;0.50;0.50;;;;;;;12.46;85.77;94341.63;5082584;28;20277;-78
2023/10/21 05:08:12;;;;;;;0.13;0.13;;;;;;;12.58;85.32;94336.13;5084986;28;20214;-78
2023/10/21 05:10:38;;;;;;;0.40;0.40;;;;;;;12.53;85.22;94347.25;5089741;28;20325;-78
2023/10/21 05:13:05;;;;;;;0.40;0.40;;;;;;;12.71;83.46;94367.53;5080348;28;20206;-78
2023/10/21 05:15:33;;;;;;;0.20;0.20;;;;;;;13.30;82.02;94369.50;5079382;28;20213;-78
2023/10/21 05:17:59;;;;;;;2.42;0.55;;;;;;;13.80;78.56;94357.09;5083621;28;20229;-77
2023/10/21 05:20:26;;;;;;;0.30;0.30;;;;;;;14.35;75.47;94358.66;5080145;28;20203;-77
2023/10/21 05:22:53;;;;;;;0.47;0.47;;;;;;;14.72;74.29;94370.00;5084267;28;20199;-78
2023/10/21 05:25:21;;;;;;;0.30;0.30;;;;;;;15.31;72.42;94360.53;5079276;28;20260;-79
2023/10/21 05:27:48;;;;;;;0.32;0.32;;;;;;;15.08;72.59;94365.19;5086435;28;20688;-78
2023/10/21 05:30:16;;;;;;;0.20;0.20;;;;;;;15.25;71.82;94351.09;5074833;28;20241;-78
2023/10/21 05:32:43;;;;;;;0.32;0.32;;;;;;;15.31;72.83;94374.16;5088416;28;20252;-80
2023/10/21 05:35:10;;;;;;;0.40;0.40;;;;;;;15.33;71.10;94369.16;5091564;28;20210;-79
2023/10/21 05:37:37;;;;;;;1.58;1.48;;;;;;;15.84;68.99;94347.78;5081649;28;20209;-81
2023/10/21 05:40:06;;;;;;;0.38;0.38;;;;;;;16.47;67.60;94377.16;5086352;28;20221;-78
2023/10/21 05:42:34;;;;;;;0.55;0.55;;;;;;;16.90;65.48;94367.56;5086085;28;20557;-79
2023/10/21 05:45:01;;;;;;;1.25;0.57;;;;;;;17.56;63.12;94365.88;5081130;28;20244;-78
2023/10/21 05:47:28;;;;;;;0.65;0.50;;;;;;;18.34;60.86;94363.72;5082779;28;20551;-78
2023/10/21 05:49:55;;;;;;;0.80;0.73;;;;;;;19.08;58.79;94371.53;5085055;28;20567;-78
2023/10/21 05:52:22;;;;;;;0.40;0.40;;;;;;;19.79;56.87;94363.44;5082036;28;20219;-78
2023/10/21 05:54:49;;;;;;;0.70;0.70;;;;;;;20.28;55.19;94375.56;5074798;28;20654;-78
2023/10/21 05:57:15;;;;;;;0.65;0.65;;;;;;;20.46;52.70;94370.88;5077068;28;20245;-77
2023/10/21 05:59:44;;;;;;;0.40;0.40;;;;;;;19.99;55.17;94396.03;5070228;28;20306;-79
2023/10/21 06:02:11;;;;;;;0.50;0.50;;;;;;;20.16;54.62;94378.75;5069841;28;20248;-78
2023/10/21 06:04:38;;;;;;;0.65;0.30;;;;;;;20.90;52.98;94394.34;5069725;28;20202;-79
2023/10/21 06:07:05;;;;;;;0.30;0.30;;;;;;;21.61;51.41;94382.97;5069623;28;20219;-80
2023/10/21 06:09:32;;;;;;;1.42;1.17;;;;;;;22.17;50.03;94370.75;5069858;28;20210;-79
2023/10/21 06:12:01;;;;;;;0.90;0.88;;;;;;;20.79;51.85;94379.78;5070263;28;20195;-78
2023/10/21 06:14:28;;;;;;;2.90;1.23;;;;;;;21.67;51.74;94386.09;5069936;28;20217;-78
2023/10/21 06:16:56;;;;;;;1.25;1.10;;;;;;;22.25;50.07;94388.03;5069961;28;20256;-77
2023/10/21 06:19:23;;;;;;;1.00;0.95;;;;;;;22.91;47.73;94385.00;5069975;28;20207;-77
2023/10/21 06:21:52;;;;;;;2.08;1.60;;;;;;;22.23;48.89;94384.91;5069877;28;20211;-78
2023/10/21 06:24:20;;;;;;;0.95;0.85;;;;;;;22.43;48.00;94374.84;5070105;28;20683;-77
2023/10/21 06:26:47;;;;;;;0.47;0.47;;;;;;;23.06;46.63;94380.88;5070237;28;20647;-78
2023/10/21 06:29:14;;;;;;;0.63;0.60;;;;;;;23.69;45.86;94384.03;5070117;28;20625;-76
2023/10/21 06:31:41;;;;;;;1.10;0.38;;;;;;;23.08;46.57;94372.19;5074939;28;20253;-75
2023/10/21 06:34:09;;;;;;;2.33;1.48;;;;;;;22.17;49.60;94369.94;5069883;28;20211;-76
2023/10/21 06:36:37;;;;;;;1.13;0.95;;;;;;;21.75;49.65;94388.38;5069866;28;20541;-77
2023/10/21 06:39:05;;;;;;;1.88;1.63;;;;;;;21.40;51.20;94394.13;5069917;28;20643;-78
2023/10/21 06:41:33;;;;;;;2.40;1.35;;;;;;;21.84;51.04;94394.25;5069883;28;20210;-77
2023/10/21 06:44:00;;;;;;;1.60;0.93;;;;;;;21.83;50.88;94395.44;5080831;28;20729;-78
2023/10/21 06:46:28;;;;;;;3.80;0.95;;;;;;;22.22;49.69;94394.34;5089886;28;20747;-78
2023/10/21 06:48:55;;;;;;;1.50;0.98;;;;;;;22.55;48.65;94390.88;5077851;28;20210;-79
2023/10/21 06:51:23;;;;;;;2.88;1.20;;;;;;;22.38;48.06;94374.50;5069705;28;20583;-79
2023/10/21 06:53:50;;;;;;;2.00;1.10;;;;;;;21.54;50.41;94388.53;5070051;28;20207;-80
2023/10/21 06:56:17;;;;;;;1.38;0.88;;;;;;;21.52;49.96;94385.38;5096794;28;20646;-80
2023/10/21 06:58:47;;;;;;;2.08;1.10;;;;;;;21.60;50.48;94393.19;5069640;28;20210;-78
2023/10/21 07:01:15;;;;;;;1.80;1.30;;;;;;;21.09;51.23;94401.31;5069509;28;20377;-78
2023/10/21 07:03:43;;;;;;;2.20;1.50;;;;;;;20.77;52.47;94390.44;5069868;28;20199;-79
2023/10/21 07:06:11;;;;;;;1.67;1.58;;;;;;;20.71;53.05;94392.03;5076005;28;20230;-78
2023/10/21 07:08:39;;;;;;;1.77;1.15;;;;;;;20.81;52.33;94385.69;5089497;28;20222;-78
2023/10/21 07:11:06;;;;;;;2.58;1.15;;;;;;;20.28;52.65;94381.06;5069343;28;20280;-77
2023/10/21 07:13:33;;;;;;;1.52;1.08;;;;;;;20.10;53.52;94380.31;5070120;28;20218;-76
2023/10/21 07:16:07;;;;;;;1.52;1.08;;;;;;;20.42;53.33;94383.84;5069551;28;20203;-75
2023/10/21 07:18:35;;;;;;;2.10;1.00;;;;;;;20.37;53.31;94383.44;5068316;28;20203;-75
2023/10/21 07:21:02;;;;;;;3.10;1.23;;;;;;;20.48;52.67;94379.50;5069770;28;20218;-75
2023/10/21 07:23:29;;;;;;;3.15;1.20;;;;;;;20.36;52.88;94387.41;5069686;28;20265;-74
2023/10/21 07:25:57;;;;;;;1.90;1.48;;;;;;;20.30;54.31;94381.47;5069567;28;20272;-77
2023/10/21 07:28:24;;;;;;;2.38;1.35;;;;;;;20.53;53.36;94392.84;5084814;28;20214;-76
2023/10/21 07:30:52;;;;;;;1.83;1.23;;;;;;;20.20;54.59;94360.28;5073911;28;20235;-78
2023/10/21 07:33:19;;;;;;;1.83;1.33;;;;;;;20.27;54.05;94371.25;5076882;28;20722;-78
2023/10/21 07:35:50;;;;;;;4.88;1.35;;;;;;;20.74;53.17;94385.72;5073411;28;20215;-78
2023/10/21 07:38:17;;;;;;;1.67;1.08;;;;;;;20.61;52.90;94370.81;5072882;28;20573;-77
2023/10/21 07:40:44;;;;;;;1.60;1.20;;;;;;;20.77;52.16;94384.94;5072978;28;20218;-79
2023/10/21 07:43:13;;;;;;;1.55;1.35;;;;;;;20.76;51.69;94364.09;5073055;28;20233;-78
2023/10/21 07:45:40;;;;;;;2.45;1.23;;;;;;;20.57;51.57;94388.13;5072600;28;20235;-77
2023/10/21 07:48:08;;;;;;;1.70;1.45;;;;;;;20.34;52.04;94374.00;5072893;28;20606;-79
2023/10/21 07:50:35;;;;;;;3.95;1.60;;;;;;;20.75;51.36;94399.09;5084838;28;20233;-75
2023/10/21 07:53:02;;;;;;;1.60;1.50;;;;;;;21.02;51.11;94393.09;5087823;28;20203;-75
2023/10/21 07:55:29;;;;;;;2.00;1.35;;;;;;;20.93;50.86;94404.53;5073291;28;20218;-75
2023/10/21 07:57:56;;;;;;;3.38;1.35;;;;;;;20.98;51.56;94395.88;5073228;28;20231;-75
2023/10/21 08:00:25;;;;;;;5.03;1.17;;;;;;;21.09;51.69;94396.59;5072674;28;20211;-77
2023/10/21 08:02:54;;;;;;;2.15;1.27;;;;;;;20.99;51.45;94374.63;5072255;28;20214;-78
2023/10/21 08:05:24;;;;;;;1.40;0.75;;;;;;;21.00;51.51;94376.97;5072388;28;20286;-77
2023/10/21 08:07:50;;;;;;;1.55;1.15;;;;;;;21.02;51.90;94377.38;5080287;28;20230;-76
2023/10/21 08:10:17;;;;;;;3.33;1.60;;;;;;;21.24;51.52;94387.13;5092634;28;21305;-78
2023/10/21 08:12:45;;;;;;;2.38;1.50;;;;;;;21.70;50.79;94391.59;5092903;28;20685;-79
2023/10/21 08:15:12;;;;;;;2.67;1.08;;;;;;;21.60;50.54;94392.41;5092501;28;20263;-78
2023/10/21 08:17:41;;;;;;;1.65;1.30;;;;;;;21.56;50.64;94386.16;5093378;28;20237;-80
2023/10/21 08:20:09;;;;;;;1.98;1.58;;;;;;;21.52;51.23;94388.16;5092199;28;20210;-78
2023/10/21 08:22:36;;;;;;;4.28;1.52;;;;;;;21.78;50.96;94370.25;5092847;28;20570;-79
2023/10/21 08:25:06;;;;;;;2.08;1.38;;;;;;;21.94;50.08;94371.31;5092874;28;20549;-78
2023/10/21 08:27:33;;;;;;;3.95;1.55;;;;;;;22.04;49.56;94377.16;5092621;28;20206;-79
2023/10/21 08:30:00;;;;;;;0.93;0.82;;;;;;;22.18;49.72;94379.81;5092505;28;20210;-77
2023/10/21 08:32:28;;;;;;;1.73;1.63;;;;;;;22.41;48.95;94363.44;5091934;28;20206;-77
2023/10/21 08:34:57;;;;;;;1.38;1.10;;;;;;;22.90;48.73;94367.66;5092358;28;20209;-78
2023/10/21 08:37:24;;;;;;;1.92;1.48;;;;;;;22.84;47.69;94358.25;5092429;28;20226;-81
2023/10/21 08:39:50;;;;;;;1.67;1.42;;;;;;;22.94;47.57;94375.91;5092206;28;20586;-75
2023/10/21 08:42:18;;;;;;;2.35;1.35;;;;;;;23.11;47.35;94354.75;5080952;28;20207;-75
2023/10/21 08:44:46;;;;;;;1.88;1.30;;;;;;;23.28;46.93;94346.25;5071967;28;20288;-75
2023/10/21 08:47:16;;;;;;;2.97;1.40;;;;;;;23.48;46.35;94345.59;5072142;28;20203;-78
2023/10/21 08:49:45;;;;;;;1.92;1.10;;;;;;;23.59;45.74;94358.09;5075191;28;20206;-79
2023/10/21 08:52:14;;;;;;;1.33;1.20;;;;;;;23.80;43.93;94373.56;5090597;28;20238;-78
2023/10/21 08:54:42;;;;;;;3.03;0.93;;;;;;;24.03;44.20;94354.25;5085812;28;20211;-79
2023/10/21 08:57:10;;;;;;;2.85;1.02;;;;;;;24.14;44.28;94353.28;5071092;28;20198;-82
2023/10/21 08:59:37;;;;;;;1.05;0.80;;;;;;;24.40;43.40;94344.16;5072271;28;20603;-77
2023/10/21 09:02:05;;;;;;;1.60;1.15;;;;;;;24.51;42.15;94355.81;5071407;28;20674;-79
2023/10/21 09:04:37;;;;;;;3.35;1.65;;;;;;;24.69;42.36;94336.88;5071612;28;20515;-77
2023/10/21 09:07:05;;;;;;;1.17;0.82;;;;;;;24.83;41.30;94343.34;5071039;28;20314;-77
2023/10/21 09:09:34;;;;;;;1.00;0.90;;;;;;;24.90;40.85;94338.44;5071669;28;20294;-79
2023/10/21 09:12:14;;;;;;;0.93;0.70;;;;;;;25.10;38.99;94335.69;5071276;28;20590;-77
2023/10/21 09:14:54;;;;;;;3.60;1.17;;;;;;;25.36;38.63;94343.06;5078167;28;20708;-77
2023/10/21 09:17:21;;;;;;;3.60;0.85;;;;;;;25.66;38.10;94352.34;5073962;28;20214;-79
2023/10/21 09:19:52;;;;;;;1.45;0.98;;;;;;;25.95;37.63;94333.03;5071211;28;20207;-78
2023/10/21 09:22:25;;;;;;;2.25;1.15;;;;;;;26.13;36.43;94345.25;5071127;28;20207;-76
2023/10/21 09:25:09;;;;;;;0.73;0.52;;;;;;;25.93;34.02;94322.34;5071098;28;20294;-78
2023/10/21 09:27:36;;;;;;;1.20;1.00;;;;;;;25.98;35.92;94344.03;5080667;28;20236;-78
2023/10/21 09:30:04;;;;;;;2.35;0.80;;;;;;;26.25;33.12;94326.31;5076333;28;20659;-78
2023/10/21 09:32:33;;;;;;;2.03;0.85;;;;;;;26.46;33.70;94311.91;5080752;28;20330;-74
2023/10/21 09:35:17;;;;;;;0.73;0.57;;;;;;;26.84;30.04;94292.59;5081202;28;20519;-76
2023/10/21 09:37:44;;;;;;;1.20;0.90;;;;;;;27.20;30.42;94314.63;5070368;28;20203;-76
2023/10/21 09:40:17;;;;;;;1.20;0.70;;;;;;;27.29;30.62;94309.19;5070197;28;20256;-75
2023/10/21 09:42:47;;;;;;;1.00;0.77;;;;;;;27.18;30.89;94300.41;5070529;28;20257;-75
2023/10/21 09:45:15;;;;;;;0.77;0.57;;;;;;;27.15;30.70;94262.34;5069806;28;20321;-76
2023/10/21 09:47:44;;;;;;;1.13;0.40;;;;;;;27.42;28.89;94271.03;5069293;28;20210;-73
2023/10/21 09:50:12;;;;;;;1.20;0.77;;;;;;;27.56;29.58;94292.91;5078780;28;20602;-73
2023/10/21 09:52:45;;;;;;;1.13;0.70;;;;;;;27.65;29.77;94283.88;5077081;28;20230;-76
2023/10/21 09:55:15;;;;;;;1.10;0.70;;;;;;;27.81;29.37;94292.09;5088300;28;20191;-76
2023/10/21 09:57:44;;;;;;;1.67;0.82;;;;;;;27.77;28.94;94290.66;5074272;28;21013;-75
2023/10/21 10:00:17;;;;;;;0.57;0.57;;;;;;;27.84;29.20;94307.13;5079141;28;20719;-75
2023/10/21 10:02:47;;;;;;;1.25;0.85;;;;;;;27.81;29.09;94296.88;5076785;28;20289;-75
2023/10/21 10:05:14;;;;;;;4.30;0.70;;;;;;;27.82;27.99;94281.75;5078186;28;20280;-76
2023/10/21 10:07:42;;;;;;;1.00;0.70;;;;;;;27.98;28.40;94287.19;5077796;28;20304;-75
2023/10/21 10:10:12;;;;;;;1.38;1.00;;;;;;;28.08;28.34;94266.53;5076729;28;20195;-76
2023/10/21 10:12:45;;;;;;;1.75;1.08;;;;;;;28.11;27.77;94260.09;5078001;28;20753;-75
2023/10/21 10:15:32;;;;;;;1.00;0.70;;;;;;;28.07;27.24;94225.22;5078420;28;20202;-77
2023/10/21 10:18:01;;;;;;;1.30;0.75;;;;;;;28.23;28.28;94281.59;5078893;28;20213;-78
2023/10/21 10:20:28;;;;;;;0.40;0.40;;;;;;;28.26;27.37;94257.63;5088499;28;20210;-78
2023/10/21 10:23:00;;;;;;;1.08;0.40;;;;;;;28.00;26.86;94259.66;5089706;28;20206;-77
2023/10/21 10:25:30;;;;;;;2.70;1.10;;;;;;;27.98;27.26;94283.63;5089625;28;20206;-79
2023/10/21 10:28:00;;;;;;;0.77;0.50;;;;;;;28.20;27.52;94262.19;5089717;28;20210;-79
2023/10/21 10:30:32;;;;;;;4.45;1.75;;;;;;;28.14;27.34;94236.91;5089521;28;20210;-79
2023/10/21 10:33:06;;;;;;;0.70;0.65;;;;;;;28.23;27.36;94230.66;5089444;28;20714;-78
2023/10/21 10:35:37;;;;;;;1.55;0.70;;;;;;;28.26;27.03;94260.41;5089727;28;20608;-78
2023/10/21 10:38:17;;;;;;;0.93;0.70;;;;;;;28.15;26.38;94255.19;5089926;28;20221;-80
2023/10/21 10:40:45;;;;;;;0.60;0.57;;;;;;;28.14;26.49;94247.28;5089476;28;20617;-80
2023/10/21 10:43:13;;;;;;;1.60;0.90;;;;;;;28.11;27.12;94257.31;5089856;28;20620;-79
2023/10/21 10:45:40;;;;;;;0.55;0.40;;;;;;;28.11;26.71;94243.38;5089647;28;20264;-79
2023/10/21 10:48:08;;;;;;;2.20;0.60;;;;;;;28.24;27.25;94246.94;5084309;28;20208;-78
2023/10/21 10:50:37;;;;;;;2.75;0.60;;;;;;;28.35;27.51;94248.56;5069632;28;20210;-77
2023/10/21 10:53:15;;;;;;;0.85;0.60;;;;;;;28.47;26.57;94236.56;5068964;28;20658;-76
2023/10/21 10:55:44;;;;;;;1.13;0.95;;;;;;;28.32;26.90;94218.81;5070072;28;20214;-77
2023/10/21 10:58:13;;;;;;;2.72;0.80;;;;;;;28.37;27.69;94213.44;5069252;28;20248;-77
2023/10/21 11:00:40;;;;;;;3.15;1.30;;;;;;;28.45;27.48;94245.38;5069981;28;20207;-79
2023/10/21 11:03:07;;;;;;;1.00;0.90;;;;;;;28.41;27.07;94205.75;5073052;28;20293;-76
2023/10/21 11:05:35;;;;;;;0.93;0.57;;;;;;;28.57;27.24;94215.91;5074300;28;20290;-79
2023/10/21 11:08:04;;;;;;;3.25;0.55;;;;;;;28.66;27.43;94241.06;5073828;28;20232;-75
2023/10/21 11:10:32;;;;;;;0.70;0.70;;;;;;;28.52;26.90;94238.78;5074210;28;20203;-74
2023/10/21 11:12:59;;;;;;;0.98;0.70;;;;;;;28.35;27.47;94229.06;5082307;28;20298;-75
2023/10/21 11:15:29;;;;;;;2.65;0.80;;;;;;;28.46;27.63;94246.94;5082155;28;20596;-73
2023/10/21 11:17:56;;;;;;;1.40;0.68;;;;;;;28.58;27.13;94239.75;5081706;28;20682;-73
2023/10/21 11:20:26;;;;;;;0.85;0.70;;;;;;;28.45;27.45;94253.75;5081091;28;20203;-73
2023/10/21 11:22:54;;;;;;;1.30;0.70;;;;;;;28.32;27.47;94244.66;5084388;28;20289;-75
2023/10/21 11:25:24;;;;;;;2.10;0.90;;;;;;;28.18;28.09;94236.75;5085615;28;20249;-75
2023/10/21 11:27:52;;;;;;;2.72;0.60;;;;;;;28.20;27.98;94240.69;5082962;28;20206;-74
2023/10/21 11:30:18;;;;;;;0.45;0.43;;;;;;;28.39;28.18;94241.63;5082883;28;20195;-75
2023/10/21 11:32:47;;;;;;;1.88;1.13;;;;;;;28.28;28.28;94222.50;5084808;28;20238;-74
2023/10/21 11:35:14;;;;;;;0.68;0.43;;;;;;;28.38;28.01;94230.94;5082828;28;20209;-73
2023/10/21 11:37:41;;;;;;;0.30;0.30;;;;;;;28.48;28.56;94221.41;5082325;28;20206;-74